Time;durP1;ratioP1;P1;durP2;ratioP2;P2;SDS_P1;SDS_P2;PMS_P1;PMS_P2;Temp;Humidity;BMP_temperature;BMP_pressure;BME280_temperature;BME280_humidity;BME280_pressure;Samples;Min_cycle;Max_cycle;Signal;HPM_P1;HPM_P2
2022/09/10 00:00:39;;;;;;;4.74;0.90;;;15.30;99.90;;;;;;4591906;27;10001073;-77
2022/09/10 00:03:05;;;;;;;3.53;1.02;;;15.30;99.90;;;;;;5117067;27;20255;-77
2022/09/10 00:05:39;;;;;;;5.35;0.93;;;15.30;99.90;;;;;;5110637;27;20073;-77
2022/09/10 00:08:05;;;;;;;;;;;15.20;99.90;;;;;;5126743;27;20386;-77
2022/09/10 00:10:36;;;;;;;2.35;0.90;;;15.20;99.90;;;;;;5137756;27;19995;-77
2022/09/10 00:13:02;;;;;;;3.03;1.20;;;15.20;99.90;;;;;;5108278;27;20440;-77
2022/09/10 00:15:28;;;;;;;5.15;1.13;;;15.20;99.90;;;;;;5115404;27;20027;-77
2022/09/10 00:17:53;;;;;;;2.70;0.95;;;15.20;99.90;;;;;;5124361;27;20039;-77
2022/09/10 00:20:19;;;;;;;2.33;0.77;;;15.20;99.90;;;;;;5119554;27;20022;-77
2022/09/10 00:22:44;;;;;;;1.85;0.70;;;15.20;99.90;;;;;;5118867;27;20159;-76
2022/09/10 00:25:10;;;;;;;2.25;0.93;;;15.20;99.90;;;;;;5130385;27;20020;-76
2022/09/10 00:27:36;;;;;;;2.15;0.70;;;15.20;99.90;;;;;;5132890;27;20023;-76
2022/09/10 00:30:03;;;;;;;4.47;0.80;;;15.10;99.90;;;;;;5120466;27;20030;-76
2022/09/10 00:32:28;;;;;;;1.00;0.68;;;15.10;99.90;;;;;;5120666;27;20038;-76
2022/09/10 00:34:54;;;;;;;4.03;0.73;;;15.00;99.90;;;;;;5132284;27;20022;-77
2022/09/10 00:37:19;;;;;;;1.83;0.75;;;15.00;99.90;;;;;;5121639;27;20022;-76
2022/09/10 00:39:46;;;;;;;2.00;0.70;;;15.00;99.90;;;;;;5143738;27;20034;-77
2022/09/10 00:42:11;;;;;;;3.28;0.75;;;14.90;99.90;;;;;;5126746;27;20269;-77
2022/09/10 00:44:40;;;;;;;3.05;0.80;;;14.90;99.90;;;;;;5115074;27;20058;-76
2022/09/10 00:47:16;;;;;;;2.20;0.80;;;14.90;99.90;;;;;;5128671;27;20051;-77
2022/09/10 00:49:46;;;;;;;3.08;0.90;;;14.90;99.90;;;;;;5127177;27;20027;-76
2022/09/10 00:52:13;;;;;;;2.58;0.65;;;14.90;99.90;;;;;;5122195;27;20030;-76
2022/09/10 00:54:41;;;;;;;2.88;0.88;;;14.90;99.90;;;;;;5092475;27;20077;-77
2022/09/10 00:57:14;;;;;;;1.67;0.73;;;14.90;99.90;;;;;;5107142;27;20036;-77
2022/09/10 00:59:45;;;;;;;2.67;0.85;;;14.90;99.90;;;;;;5117627;27;20102;-76
2022/09/10 01:02:11;;;;;;;5.05;1.02;;;14.90;99.90;;;;;;5114736;28;20059;-77
2022/09/10 01:04:38;;;;;;;3.50;0.98;;;14.90;99.90;;;;;;5119523;27;20095;-77
2022/09/10 01:07:06;;;;;;;3.15;1.20;;;14.80;99.90;;;;;;5116890;27;20019;-77
2022/09/10 01:09:32;;;;;;;3.05;0.90;;;14.80;99.90;;;;;;5127467;27;20034;-77
2022/09/10 01:12:35;;;;;;;4.10;0.90;;;14.80;99.90;;;;;;5130945;27;20043;-76
2022/09/10 01:15:04;;;;;;;2.80;0.95;;;14.70;99.90;;;;;;5098384;28;20516;-77
2022/09/10 01:17:29;;;;;;;3.35;1.00;;;14.70;99.90;;;;;;5110799;27;20035;-77
2022/09/10 01:20:20;;;;;;;3.10;1.02;;;14.70;99.90;;;;;;5120348;27;20514;-77
2022/09/10 01:23:23;;;;;;;3.42;1.35;;;14.70;99.90;;;;;;5114319;27;20033;-77
2022/09/10 01:26:29;;;;;;;2.90;1.10;;;14.60;99.90;;;;;;5124936;27;20026;-77
2022/09/10 01:29:04;;;;;;;4.05;1.50;;;14.60;99.90;;;;;;5110126;27;20027;-77
2022/09/10 01:31:54;;;;;;;2.83;1.20;;;14.60;99.90;;;;;;5129265;27;20118;-75
2022/09/10 01:34:36;;;;;;;3.55;1.65;;;14.60;99.90;;;;;;5123015;28;20035;-76
2022/09/10 01:37:11;;;;;;;1.98;1.10;;;14.60;99.90;;;;;;5128897;27;20020;-77
2022/09/10 01:39:37;;;;;;;1.80;1.10;;;14.70;99.90;;;;;;5116178;27;20040;-76
2022/09/10 01:42:03;;;;;;;4.35;1.35;;;14.70;99.90;;;;;;5124183;27;20267;-77
2022/09/10 01:44:42;;;;;;;2.10;1.20;;;14.70;99.90;;;;;;5127855;27;20024;-76
2022/09/10 01:47:39;;;;;;;6.30;1.73;;;14.70;99.90;;;;;;5110333;28;20028;-77
2022/09/10 01:50:17;;;;;;;3.03;1.50;;;14.70;99.90;;;;;;5122856;27;20027;-77
2022/09/10 01:53:07;;;;;;;3.30;1.60;;;14.60;99.90;;;;;;5113176;27;20030;-77
2022/09/10 01:56:11;;;;;;;4.95;1.85;;;14.60;99.90;;;;;;5109993;27;20015;-76
2022/09/10 01:58:40;;;;;;;5.68;1.80;;;14.60;99.90;;;;;;5076452;28;20126;-76
2022/09/10 02:01:20;;;;;;;5.82;1.77;;;14.60;99.90;;;;;;5110164;27;20494;-76
2022/09/10 02:03:51;;;;;;;4.18;1.80;;;14.60;99.90;;;;;;5124951;27;20035;-76
2022/09/10 02:06:21;;;;;;;6.05;2.03;;;14.60;99.90;;;;;;5122685;27;20041;-77
2022/09/10 02:08:50;;;;;;;3.50;1.65;;;14.60;99.90;;;;;;5121306;27;20019;-77
2022/09/10 02:11:16;;;;;;;7.97;2.03;;;14.60;99.90;;;;;;5121277;27;20043;-77
2022/09/10 02:13:41;;;;;;;4.03;1.80;;;14.60;99.90;;;;;;5115682;27;20031;-76
2022/09/10 02:16:29;;;;;;;5.38;2.05;;;14.60;99.90;;;;;;5119610;27;20507;-77
2022/09/10 02:18:56;;;;;;;2.17;1.60;;;14.60;99.90;;;;;;5131537;27;20037;-77
2022/09/10 02:21:22;;;;;;;3.35;1.70;;;14.50;99.90;;;;;;5130058;27;20023;-76
2022/09/10 02:23:55;;;;;;;2.90;1.40;;;14.50;99.90;;;;;;5137655;27;20037;-77
2022/09/10 02:26:21;;;;;;;3.45;1.50;;;14.40;99.90;;;;;;5123464;27;20098;-77
2022/09/10 02:28:50;;;;;;;2.65;1.52;;;14.40;99.90;;;;;;5131911;27;20057;-77
2022/09/10 02:31:17;;;;;;;3.17;1.60;;;14.40;99.90;;;;;;5128117;27;20434;-77
2022/09/10 02:33:43;;;;;;;7.53;2.35;;;14.30;99.90;;;;;;5127592;27;20027;-76
2022/09/10 02:36:08;;;;;;;4.88;2.58;;;14.20;99.90;;;;;;5136273;27;20075;-77
2022/09/10 02:38:34;;;;;;;5.13;2.50;;;14.20;99.90;;;;;;5131779;27;20023;-76
2022/09/10 02:41:00;;;;;;;4.75;2.40;;;14.30;99.90;;;;;;5120231;27;20597;-76
2022/09/10 02:43:26;;;;;;;5.13;2.58;;;14.30;99.90;;;;;;5121749;27;20486;-76
2022/09/10 02:45:58;;;;;;;4.53;2.50;;;14.30;99.90;;;;;;5110665;27;20097;-76
2022/09/10 02:48:25;;;;;;;3.85;2.30;;;14.40;99.90;;;;;;5129828;27;20015;-77
2022/09/10 02:50:52;;;;;;;4.93;2.90;;;14.30;99.90;;;;;;5149730;27;20027;-77
2022/09/10 02:53:18;;;;;;;5.93;3.03;;;14.30;99.90;;;;;;5115159;27;20379;-76
2022/09/10 02:55:45;;;;;;;8.85;3.05;;;14.30;99.90;;;;;;5120731;27;20437;-77
2022/09/10 02:58:12;;;;;;;7.20;3.53;;;14.30;99.90;;;;;;5126207;27;20110;-77
2022/09/10 03:00:38;;;;;;;4.85;3.17;;;14.30;99.90;;;;;;5125011;27;20027;-77
2022/09/10 03:03:04;;;;;;;8.50;3.60;;;14.30;99.90;;;;;;5129107;27;20486;-77
2022/09/10 03:05:30;;;;;;;6.47;3.55;;;14.30;99.90;;;;;;5144006;27;20032;-76
2022/09/10 03:07:56;;;;;;;9.23;4.07;;;14.40;99.90;;;;;;5137632;27;20026;-77
2022/09/10 03:10:22;;;;;;;8.05;3.97;;;14.30;99.90;;;;;;5132668;27;20648;-77
2022/09/10 03:12:48;;;;;;;11.50;4.40;;;14.40;99.90;;;;;;5117091;27;20038;-76
2022/09/10 03:15:14;;;;;;;8.05;4.25;;;14.40;99.90;;;;;;5133153;27;20105;-77
2022/09/10 03:17:40;;;;;;;7.40;3.92;;;14.40;99.90;;;;;;5146366;27;20037;-76
2022/09/10 03:20:06;;;;;;;6.82;3.95;;;14.40;99.90;;;;;;5133572;27;20027;-77
2022/09/10 03:22:32;;;;;;;5.22;3.60;;;14.50;99.90;;;;;;5118776;27;20826;-77
2022/09/10 03:24:58;;;;;;;6.30;3.58;;;14.50;99.90;;;;;;5137170;27;20035;-77
2022/09/10 03:27:25;;;;;;;6.00;4.20;;;14.50;99.90;;;;;;5141082;27;20079;-77
2022/09/10 03:29:50;;;;;;;5.10;3.55;;;14.50;99.90;;;;;;5126759;27;20027;-77
2022/09/10 03:32:16;;;;;;;9.77;4.47;;;14.50;99.90;;;;;;5115259;27;20023;-77
2022/09/10 03:34:43;;;;;;;7.63;4.30;;;14.50;99.90;;;;;;5139880;27;20018;-77
2022/09/10 03:37:08;;;;;;;4.45;3.90;;;14.40;99.90;;;;;;5143162;27;20031;-77
2022/09/10 03:39:34;;;;;;;7.82;4.07;;;14.40;99.90;;;;;;5122119;27;20105;-77
2022/09/10 03:41:59;;;;;;;8.25;4.25;;;14.40;99.90;;;;;;5139234;27;20425;-77
2022/09/10 03:44:25;;;;;;;8.88;4.43;;;14.30;99.90;;;;;;5123853;27;20025;-76
2022/09/10 03:46:51;;;;;;;9.88;4.47;;;14.30;99.90;;;;;;5108452;27;20023;-76
2022/09/10 03:49:17;;;;;;;6.75;4.13;;;14.30;99.90;;;;;;5127000;27;20260;-77
2022/09/10 03:51:42;;;;;;;7.28;3.97;;;14.20;99.90;;;;;;5142852;27;20027;-77
2022/09/10 03:54:08;;;;;;;7.88;4.28;;;14.20;99.90;;;;;;5118649;27;20052;-76
2022/09/10 03:56:33;;;;;;;7.07;4.47;;;14.10;99.90;;;;;;5118753;27;20022;-76
2022/09/10 03:58:59;;;;;;;7.13;4.38;;;14.10;99.90;;;;;;5141526;27;20196;-76
2022/09/10 04:01:25;;;;;;;6.22;4.50;;;14.10;99.90;;;;;;5120383;27;20122;-76
2022/09/10 04:03:54;;;;;;;8.55;4.35;;;14.00;99.90;;;;;;5128583;27;20027;-76
2022/09/10 04:06:20;;;;;;;7.53;4.20;;;14.00;99.90;;;;;;5139887;27;20069;-76
2022/09/10 04:08:48;;;;;;;6.30;3.63;;;14.00;99.90;;;;;;5129923;27;20054;-76
2022/09/10 04:11:14;;;;;;;7.43;4.22;;;14.00;99.90;;;;;;5122084;27;20023;-76
2022/09/10 04:13:39;;;;;;;5.93;3.47;;;14.00;99.90;;;;;;5120488;27;20041;-76
2022/09/10 04:16:05;;;;;;;8.77;4.35;;;14.00;99.90;;;;;;5123058;27;20027;-76
2022/09/10 04:18:32;;;;;;;6.20;3.70;;;14.10;99.90;;;;;;5121678;27;20076;-76
2022/09/10 04:20:58;;;;;;;7.63;3.65;;;14.10;99.90;;;;;;5127167;27;20042;-76
2022/09/10 04:23:24;;;;;;;8.88;4.15;;;14.00;99.90;;;;;;5127863;27;20020;-76
2022/09/10 04:25:49;;;;;;;8.45;3.72;;;13.90;99.90;;;;;;5134336;27;20015;-76
2022/09/10 04:28:15;;;;;;;7.63;3.45;;;14.00;99.90;;;;;;5109029;27;20042;-76
2022/09/10 04:30:43;;;;;;;7.05;3.33;;;13.90;99.90;;;;;;5114785;27;20057;-75
2022/09/10 04:33:10;;;;;;;5.70;3.03;;;13.90;99.90;;;;;;5112958;27;20173;-76
2022/09/10 04:35:36;;;;;;;4.75;3.42;;;13.90;99.90;;;;;;5116468;27;20396;-76
2022/09/10 04:38:02;;;;;;;4.72;3.17;;;13.80;99.90;;;;;;5113552;27;20027;-76
2022/09/10 04:40:27;;;;;;;5.57;2.70;;;13.90;99.90;;;;;;5132671;27;20038;-76
2022/09/10 04:42:53;;;;;;;4.63;3.20;;;13.80;99.90;;;;;;5119048;27;20040;-77
2022/09/10 04:45:19;;;;;;;4.75;3.28;;;13.80;99.90;;;;;;5141987;27;20015;-77
2022/09/10 04:47:48;;;;;;;6.75;3.28;;;13.80;99.90;;;;;;5114506;27;20031;-76
2022/09/10 04:50:14;;;;;;;6.50;3.30;;;13.90;99.90;;;;;;5125314;27;20663;-77
2022/09/10 04:52:42;;;;;;;6.05;2.80;;;13.80;99.90;;;;;;5127270;27;20031;-77
2022/09/10 04:55:08;;;;;;;3.38;2.80;;;13.80;99.90;;;;;;5124662;27;20054;-76
2022/09/10 04:57:34;;;;;;;8.18;3.10;;;13.80;99.90;;;;;;5125001;27;20034;-77
2022/09/10 05:00:02;;;;;;;4.05;2.60;;;13.80;99.90;;;;;;5136452;27;20038;-76
2022/09/10 05:02:28;;;;;;;3.78;2.60;;;13.80;99.90;;;;;;5118993;27;20031;-76
2022/09/10 05:04:54;;;;;;;3.65;2.58;;;13.80;99.90;;;;;;5114219;27;20019;-76
2022/09/10 05:07:19;;;;;;;7.45;3.38;;;13.80;99.90;;;;;;5128702;27;20050;-76
2022/09/10 05:09:45;;;;;;;6.60;3.13;;;13.80;99.90;;;;;;5126098;27;20051;-75
2022/09/10 05:12:10;;;;;;;6.50;3.05;;;13.90;99.90;;;;;;5109015;27;20030;-76
2022/09/10 05:14:36;;;;;;;5.60;3.00;;;13.90;99.90;;;;;;5111734;27;20023;-76
2022/09/10 05:17:02;;;;;;;4.30;3.05;;;14.00;99.90;;;;;;5135426;27;20034;-76
2022/09/10 05:19:28;;;;;;;5.28;3.00;;;14.00;99.90;;;;;;5121352;27;20479;-75
2022/09/10 05:21:53;;;;;;;7.72;3.28;;;14.00;99.90;;;;;;5134103;27;20034;-76
2022/09/10 05:24:20;;;;;;;6.07;3.00;;;14.10;99.90;;;;;;5114144;27;20036;-76
2022/09/10 05:26:45;;;;;;;5.85;3.58;;;14.10;99.90;;;;;;5131448;27;20031;-76
2022/09/10 05:29:12;;;;;;;6.50;3.15;;;14.20;99.90;;;;;;5112909;27;20022;-76
2022/09/10 05:31:39;;;;;;;6.75;3.60;;;14.20;99.90;;;;;;5123768;27;20048;-76
2022/09/10 05:34:05;;;;;;;11.10;3.80;;;14.30;99.90;;;;;;5126758;27;20027;-76
2022/09/10 05:36:31;;;;;;;6.25;3.47;;;14.30;99.90;;;;;;5118764;27;20030;-76
2022/09/10 05:38:59;;;;;;;6.63;3.67;;;14.30;99.90;;;;;;5119875;27;20402;-77
2022/09/10 05:41:27;;;;;;;7.10;4.22;;;14.40;99.90;;;;;;5143022;27;20034;-76
2022/09/10 05:43:53;;;;;;;5.25;3.58;;;14.40;99.90;;;;;;5119659;27;20685;-76
2022/09/10 05:46:18;;;;;;;7.28;3.47;;;14.40;99.90;;;;;;5134869;27;20007;-76
2022/09/10 05:48:44;;;;;;;5.45;3.85;;;14.50;99.90;;;;;;5126659;27;20016;-77
2022/09/10 05:51:10;;;;;;;8.18;3.88;;;14.50;99.90;;;;;;5123346;27;20020;-77
2022/09/10 05:53:37;;;;;;;7.68;4.30;;;14.50;99.90;;;;;;5118498;27;20058;-76
2022/09/10 05:56:04;;;;;;;8.80;4.10;;;14.50;99.90;;;;;;5118974;27;20100;-76
2022/09/10 05:58:30;;;;;;;4.65;3.58;;;14.50;99.90;;;;;;5128072;27;20033;-76
2022/09/10 06:00:57;;;;;;;5.88;3.60;;;14.60;99.90;;;;;;5121034;27;20027;-76
2022/09/10 06:03:22;;;;;;;10.27;3.80;;;14.50;99.90;;;;;;5129361;27;20041;-76
2022/09/10 06:05:51;;;;;;;7.65;3.72;;;14.60;99.90;;;;;;5138557;27;20035;-76
2022/09/10 06:08:19;;;;;;;5.38;3.60;;;14.60;99.90;;;;;;5123230;27;20561;-76
2022/09/10 06:10:59;;;;;;;6.15;3.72;;;14.60;99.90;;;;;;5114142;27;20028;-76
2022/09/10 06:13:25;;;;;;;6.38;4.10;;;14.60;99.90;;;;;;5119585;27;20043;-77
2022/09/10 06:15:51;;;;;;;6.45;4.57;;;14.60;99.90;;;;;;5116737;27;20127;-77
2022/09/10 06:18:17;;;;;;;8.48;4.13;;;14.60;99.90;;;;;;5136631;27;20063;-76
2022/09/10 06:20:43;;;;;;;6.60;4.25;;;14.70;99.90;;;;;;5150707;27;20026;-76
2022/09/10 06:23:08;;;;;;;9.75;4.70;;;14.70;99.90;;;;;;5137004;27;20111;-77
2022/09/10 06:25:34;;;;;;;8.13;4.63;;;14.70;99.90;;;;;;5126159;27;20021;-76
2022/09/10 06:28:01;;;;;;;6.88;4.65;;;14.70;99.90;;;;;;5128817;27;20128;-80
2022/09/10 06:30:27;;;;;;;11.55;5.57;;;14.70;99.90;;;;;;5115233;27;20510;-83
2022/09/10 06:32:52;;;;;;;10.02;6.03;;;14.70;99.90;;;;;;5119766;27;20088;-80
2022/09/10 06:35:18;;;;;;;13.90;5.60;;;14.70;99.90;;;;;;5123328;27;20038;-78
2022/09/10 06:37:44;;;;;;;7.03;4.95;;;14.60;99.90;;;;;;5150227;27;20033;-78
2022/09/10 06:40:10;;;;;;;14.23;6.47;;;14.60;99.90;;;;;;5140970;27;20490;-78
2022/09/10 06:42:35;;;;;;;9.20;6.40;;;14.60;99.90;;;;;;5115787;27;20031;-78
2022/09/10 06:45:01;;;;;;;10.57;6.82;;;14.70;99.90;;;;;;5120585;27;20387;-78
2022/09/10 06:47:27;;;;;;;12.32;7.38;;;14.60;99.90;;;;;;5132855;27;20490;-77
2022/09/10 06:49:52;;;;;;;12.35;7.78;;;14.60;99.90;;;;;;5131336;27;20022;-78
2022/09/10 06:52:18;;;;;;;8.15;6.43;;;14.60;99.90;;;;;;5137142;27;20122;-77
2022/09/10 06:54:43;;;;;;;9.18;6.85;;;14.60;99.90;;;;;;5113154;27;20389;-78
2022/09/10 06:57:09;;;;;;;9.63;6.78;;;14.60;99.90;;;;;;5120376;27;20038;-77
2022/09/10 06:59:35;;;;;;;9.80;6.55;;;14.60;99.90;;;;;;5130187;27;20026;-78
2022/09/10 07:02:01;;;;;;;10.10;6.90;;;14.60;99.90;;;;;;5128933;27;20030;-78
2022/09/10 07:04:27;;;;;;;11.18;7.43;;;14.60;99.90;;;;;;5129283;27;20024;-78
2022/09/10 07:06:53;;;;;;;11.30;7.53;;;14.60;99.90;;;;;;5134035;27;20118;-78
2022/09/10 07:09:19;;;;;;;12.65;7.78;;;14.60;99.90;;;;;;5114814;27;20111;-78
2022/09/10 07:11:44;;;;;;;10.13;7.20;;;14.60;99.90;;;;;;5119770;27;20042;-78
2022/09/10 07:14:11;;;;;;;11.38;7.63;;;14.70;99.90;;;;;;5133957;27;20051;-77
2022/09/10 07:16:40;;;;;;;10.90;6.80;;;14.60;99.90;;;;;;5123546;27;20061;-78
2022/09/10 07:19:06;;;;;;;9.98;7.72;;;14.70;99.90;;;;;;5126966;27;20039;-78
2022/09/10 07:21:36;;;;;;;9.00;7.68;;;14.70;99.90;;;;;;5133224;27;20043;-78
2022/09/10 07:24:04;;;;;;;11.07;7.18;;;14.70;99.90;;;;;;5119553;27;20038;-78
2022/09/10 07:26:30;;;;;;;11.90;7.68;;;14.70;99.90;;;;;;5127588;27;20116;-81
2022/09/10 07:28:57;;;;;;;13.80;8.38;;;14.80;99.90;;;;;;5116364;27;20143;-78
2022/09/10 07:31:32;;;;;;;11.18;7.63;;;14.80;99.90;;;;;;5140309;27;20484;-80
2022/09/10 07:33:59;;;;;;;8.77;7.88;;;14.90;99.90;;;;;;4764634;27;10000345;-78
2022/09/10 07:36:25;;;;;;;9.80;7.63;;;14.90;99.90;;;;;;5108657;27;20027;-80
2022/09/10 07:38:53;;;;;;;12.90;7.65;;;14.90;99.90;;;;;;5137885;27;20019;-80
2022/09/10 07:41:19;;;;;;;11.48;7.80;;;15.00;99.90;;;;;;5127895;27;20112;-79
2022/09/10 07:43:44;;;;;;;12.18;7.40;;;15.00;99.90;;;;;;5120619;27;20719;-79
2022/09/10 07:46:16;;;;;;;8.20;7.35;;;15.00;99.90;;;;;;5134873;27;20033;-80
2022/09/10 07:48:42;;;;;;;8.25;6.63;;;15.00;99.90;;;;;;5108805;27;20042;-78
2022/09/10 07:51:10;;;;;;;11.85;7.20;;;15.00;99.90;;;;;;5143872;27;20023;-80
2022/09/10 07:53:36;;;;;;;8.52;6.45;;;15.00;99.90;;;;;;5115111;27;20035;-82
2022/09/10 07:56:04;;;;;;;10.93;6.38;;;15.10;99.90;;;;;;5136595;27;20046;-84
2022/09/10 07:58:32;;;;;;;10.02;6.75;;;15.10;99.90;;;;;;5105455;27;20031;-83
2022/09/10 08:00:58;;;;;;;7.93;6.65;;;15.10;99.90;;;;;;5130048;27;20133;-83
2022/09/10 08:03:28;;;;;;;11.25;6.07;;;15.20;99.90;;;;;;5123283;27;20251;-81
2022/09/10 08:05:54;;;;;;;9.38;6.88;;;15.30;99.90;;;;;;5131170;27;20561;-83
2022/09/10 08:08:20;;;;;;;9.98;6.82;;;15.40;99.90;;;;;;5107908;27;20702;-86
2022/09/10 08:10:48;;;;;;;7.97;6.45;;;15.50;99.90;;;;;;5122441;27;20762;-90
2022/09/10 08:13:14;;;;;;;8.35;5.70;;;15.50;99.90;;;;;;5101600;27;20027;-85
2022/09/10 08:15:42;;;;;;;7.90;5.35;;;15.60;99.90;;;;;;5113944;27;20015;-84
2022/09/10 08:18:08;;;;;;;5.82;5.22;;;15.70;99.90;;;;;;5107702;27;20026;-82
2022/09/10 08:20:34;;;;;;;7.97;5.55;;;15.70;99.90;;;;;;5115080;27;20027;-82
2022/09/10 08:22:59;;;;;;;7.60;4.47;;;15.80;99.90;;;;;;5130092;27;20546;-82
2022/09/10 08:25:25;;;;;;;6.50;4.35;;;15.90;99.90;;;;;;5127607;27;20737;-86
2022/09/10 08:27:51;;;;;;;6.82;4.65;;;15.90;99.90;;;;;;5112941;27;20021;-85
2022/09/10 08:30:17;;;;;;;8.27;4.78;;;16.10;99.90;;;;;;5113268;27;20039;-85
2022/09/10 08:32:42;;;;;;;6.00;4.50;;;16.20;99.90;;;;;;5110787;27;20019;-86
2022/09/10 08:35:08;;;;;;;7.07;3.78;;;16.30;99.90;;;;;;5132306;27;20027;-80
2022/09/10 08:37:33;;;;;;;6.03;3.40;;;16.30;99.90;;;;;;5110011;27;20031;-81
2022/09/10 08:39:59;;;;;;;4.55;3.17;;;16.30;99.90;;;;;;5124077;27;20050;-81
2022/09/10 08:42:49;;;;;;;5.63;3.55;;;16.30;99.90;;;;;;5127564;27;20086;-82
2022/09/10 08:45:31;;;;;;;4.05;3.30;;;16.40;99.90;;;;;;5114796;27;20135;-79
2022/09/10 08:48:16;;;;;;;5.25;3.28;;;16.40;99.90;;;;;;5131584;27;20038;-82
2022/09/10 08:51:12;;;;;;;7.75;2.97;;;16.40;99.90;;;;;;5125604;27;20128;-80
2022/09/10 08:54:01;;;;;;;4.15;2.90;;;16.50;99.90;;;;;;5130523;27;20482;-80
2022/09/10 08:56:27;;;;;;;6.47;3.17;;;16.60;99.90;;;;;;5125479;27;20042;-80
2022/09/10 08:59:03;;;;;;;5.35;2.83;;;16.70;99.90;;;;;;5112346;27;20041;-82
2022/09/10 09:01:46;;;;;;;5.90;2.92;;;16.80;99.90;;;;;;5107731;27;20023;-78
2022/09/10 09:04:31;;;;;;;5.80;2.58;;;16.80;99.90;;;;;;5133895;27;20039;-83
2022/09/10 09:07:01;;;;;;;7.80;2.67;;;17.00;99.90;;;;;;5115501;27;20034;-83
2022/09/10 09:09:27;;;;;;;4.82;2.70;;;17.00;99.90;;;;;;5142758;27;20019;-86
2022/09/10 09:12:04;;;;;;;8.20;2.50;;;17.10;99.90;;;;;;5131522;27;20308;-85
2022/09/10 09:15:02;;;;;;;6.90;2.58;;;17.10;99.90;;;;;;5128860;27;20072;-86
2022/09/10 09:17:52;;;;;;;6.70;2.50;;;17.20;99.90;;;;;;5127377;27;20023;-86
2022/09/10 09:20:36;;;;;;;3.78;2.13;;;17.20;99.90;;;;;;5132174;27;20094;-81
2022/09/10 09:23:18;;;;;;;5.88;2.42;;;17.10;99.90;;;;;;5126315;27;20475;-85
2022/09/10 09:25:57;;;;;;;4.30;2.37;;;17.00;99.90;;;;;;5133703;27;20039;-86
2022/09/10 09:29:05;;;;;;;4.10;2.10;;;17.00;99.90;;;;;;5141430;27;20035;-80
2022/09/10 09:31:36;;;;;;;3.85;2.00;;;16.80;99.90;;;;;;5109538;27;20027;-80
2022/09/10 09:34:40;;;;;;;3.85;2.40;;;16.80;99.90;;;;;;5113860;27;20023;-81
2022/09/10 09:37:17;;;;;;;5.63;2.08;;;16.80;99.90;;;;;;5124624;27;20030;-80
2022/09/10 09:40:11;;;;;;;3.88;1.90;;;16.80;99.90;;;;;;5137759;27;20053;-81
2022/09/10 09:42:55;;;;;;;4.68;1.88;;;16.80;99.90;;;;;;5132094;27;20123;-80
2022/09/10 09:45:33;;;;;;;3.08;1.73;;;16.80;99.90;;;;;;5147904;27;20187;-80
2022/09/10 09:47:59;;;;;;;4.45;1.90;;;16.80;99.90;;;;;;5139357;27;20019;-82
2022/09/10 09:50:24;;;;;;;3.00;1.60;;;16.90;99.90;;;;;;5135236;27;20081;-80
2022/09/10 09:52:57;;;;;;;5.75;1.80;;;17.00;99.90;;;;;;5112887;27;20042;-80
2022/09/10 09:55:36;;;;;;;4.22;1.98;;;17.00;99.90;;;;;;5123298;27;20032;-80
2022/09/10 09:58:20;;;;;;;9.43;2.40;;;17.10;99.90;;;;;;5119057;27;20085;-80
2022/09/10 10:01:02;;;;;;;4.57;2.05;;;17.20;99.90;;;;;;5125194;27;20061;-80
2022/09/10 10:03:31;;;;;;;4.28;2.05;;;17.30;99.90;;;;;;5142007;27;20079;-80
2022/09/10 10:06:05;;;;;;;3.22;1.60;;;17.40;99.90;;;;;;5141858;27;20088;-80
2022/09/10 10:08:40;;;;;;;6.78;1.83;;;17.50;99.90;;;;;;5120234;27;20032;-79
2022/09/10 10:11:06;;;;;;;3.25;1.48;;;17.50;99.90;;;;;;5106024;27;20034;-80
2022/09/10 10:13:43;;;;;;;2.95;1.45;;;17.50;99.90;;;;;;5144511;27;20038;-80
2022/09/10 10:16:29;;;;;;;2.78;1.58;;;17.60;99.90;;;;;;5134055;27;20034;-79
2022/09/10 10:18:55;;;;;;;4.18;1.50;;;17.70;99.90;;;;;;5129528;27;20031;-81
2022/09/10 10:21:37;;;;;;;4.35;1.30;;;17.80;99.90;;;;;;5110067;27;20019;-84
2022/09/10 10:24:02;;;;;;;3.30;1.55;;;17.90;99.90;;;;;;5142815;27;20095;-82
2022/09/10 10:26:36;;;;;;;1.75;1.17;;;17.90;99.90;;;;;;5115727;27;20023;-82
2022/09/10 10:29:15;;;;;;;2.38;1.35;;;18.00;99.90;;;;;;5146241;27;20588;-84
2022/09/10 10:31:43;;;;;;;5.13;1.27;;;18.10;99.90;;;;;;5124816;27;20015;-82
2022/09/10 10:34:27;;;;;;;4.25;1.20;;;18.30;99.90;;;;;;5109818;27;20408;-84
2022/09/10 10:37:11;;;;;;;3.03;1.02;;;18.40;99.90;;;;;;5133327;27;20038;-80
2022/09/10 10:39:43;;;;;;;3.95;1.02;;;18.50;99.90;;;;;;5137776;27;20065;-83
2022/09/10 10:42:18;;;;;;;1.95;1.10;;;18.60;99.90;;;;;;5128736;27;20172;-85
2022/09/10 10:45:04;;;;;;;2.03;1.00;;;18.60;99.90;;;;;;5118115;27;20035;-83
2022/09/10 10:47:51;;;;;;;2.92;1.08;;;18.70;99.90;;;;;;5140178;27;20192;-84
2022/09/10 10:50:24;;;;;;;4.43;1.45;;;18.60;99.90;;;;;;5134373;27;20031;-81
2022/09/10 10:53:21;;;;;;;3.15;1.13;;;18.50;99.90;;;;;;5121862;27;20585;-82
2022/09/10 10:56:02;;;;;;;1.88;1.10;;;18.40;99.90;;;;;;5129466;27;20099;-82
2022/09/10 10:59:09;;;;;;;2.83;1.00;;;18.30;99.90;;;;;;5128740;27;20160;-85
2022/09/10 11:01:44;;;;;;;2.30;1.00;;;18.20;99.90;;;;;;5107523;27;20039;-86
2022/09/10 11:04:18;;;;;;;9.75;1.10;;;18.20;99.90;;;;;;5137640;27;20026;-80
2022/09/10 11:06:48;;;;;;;3.22;1.10;;;18.20;99.90;;;;;;5132038;27;20735;-86
2022/09/10 11:09:30;;;;;;;3.33;1.00;;;18.10;99.90;;;;;;5132581;27;20062;-85
2022/09/10 11:12:07;;;;;;;3.88;1.08;;;18.10;99.90;;;;;;5128305;27;20792;-81
2022/09/10 11:14:47;;;;;;;1.70;0.80;;;18.20;99.90;;;;;;5124798;27;20632;-81
2022/09/10 11:17:33;;;;;;;2.58;0.60;;;18.30;99.90;;;;;;5118961;27;20066;-79
2022/09/10 11:20:22;;;;;;;0.63;0.50;;;18.50;99.90;;;;;;5123977;27;20085;-80
2022/09/10 11:23:04;;;;;;;3.75;0.40;;;18.70;99.90;;;;;;5132235;27;20046;-78
2022/09/10 11:25:37;;;;;;;0.90;0.50;;;19.10;99.90;;;;;;5127887;27;20031;-78
2022/09/10 11:28:08;;;;;;;;;;;19.40;99.90;;;;;;5130886;27;20027;-77
2022/09/10 11:30:37;;;;;;;2.60;0.57;;;;;;;;;;5139055;27;20426;-78
2022/09/10 11:33:38;;;;;;;0.85;0.50;;;20.30;99.90;;;;;;5121159;27;20104;-78
2022/09/10 11:36:17;;;;;;;2.03;0.70;;;20.60;99.90;;;;;;5130791;27;20616;-78
2022/09/10 11:39:01;;;;;;;0.80;0.40;;;20.90;99.90;;;;;;5117063;27;20107;-86
2022/09/10 11:41:31;;;;;;;0.68;0.50;;;21.20;99.90;;;;;;5132293;27;20494;-82
2022/09/10 11:44:15;;;;;;;2.17;0.63;;;21.30;99.90;;;;;;5135919;27;20682;-82
2022/09/10 11:47:14;;;;;;;2.47;0.50;;;21.40;99.90;;;;;;5129998;27;20078;-81
2022/09/10 11:49:52;;;;;;;3.95;0.57;;;21.60;99.90;;;;;;5135830;27;20026;-82
2022/09/10 11:52:20;;;;;;;2.13;0.52;;;21.90;99.90;;;;;;5121168;27;20875;-82
2022/09/10 11:54:46;;;;;;;1.52;0.70;;;22.00;99.90;;;;;;5137969;27;20075;-83
2022/09/10 11:57:34;;;;;;;3.92;0.50;;;22.00;99.90;;;;;;5118845;27;20030;-82
2022/09/10 12:00:08;;;;;;;2.70;0.70;;;21.80;99.90;;;;;;5117995;27;20141;-80
2022/09/10 12:03:20;;;;;;;1.27;0.57;;;21.40;99.90;;;;;;5125384;27;20051;-81
2022/09/10 12:06:15;;;;;;;2.53;0.60;;;21.00;99.90;;;;;;5112022;27;20030;-82
2022/09/10 12:09:04;;;;;;;2.08;0.60;;;20.50;99.90;;;;;;5116390;27;20028;-83
2022/09/10 12:11:30;;;;;;;1.80;0.70;;;20.00;99.90;;;;;;5120404;27;20283;-82
2022/09/10 12:13:57;;;;;;;1.15;0.60;;;19.60;99.90;;;;;;5105943;27;20035;-83
2022/09/10 12:16:56;;;;;;;1.42;0.70;;;19.30;99.90;;;;;;5115930;27;20030;-80
2022/09/10 12:19:30;;;;;;;1.00;0.70;;;19.10;99.90;;;;;;5120039;27;20035;-86
2022/09/10 12:22:02;;;;;;;3.15;0.95;;;18.90;99.90;;;;;;5100874;27;20493;-84
2022/09/10 12:24:31;;;;;;;2.40;0.77;;;18.90;99.90;;;;;;5118056;27;20041;-84
2022/09/10 12:27:02;;;;;;;2.13;1.20;;;18.80;99.90;;;;;;5118924;27;20280;-86
2022/09/10 12:29:34;;;;;;;1.08;0.80;;;18.90;99.90;;;;;;5122044;27;20031;-86
2022/09/10 12:32:18;;;;;;;4.10;1.08;;;18.90;99.90;;;;;;5121161;27;20130;-81
2022/09/10 12:34:47;;;;;;;1.90;1.05;;;19.00;99.90;;;;;;5128226;27;20066;-91
2022/09/10 12:37:22;;;;;;;1.35;1.10;;;19.10;99.90;;;;;;5122850;27;20054;-83
2022/09/10 12:39:48;;;;;;;2.70;1.10;;;19.20;99.90;;;;;;5133399;27;20034;-79
2022/09/10 12:42:33;;;;;;;2.28;1.20;;;19.20;99.90;;;;;;5119519;27;20058;-83
2022/09/10 12:44:59;;;;;;;1.35;1.25;;;19.20;99.90;;;;;;5119874;27;20509;-79
2022/09/10 12:47:51;;;;;;;3.88;1.48;;;19.30;99.90;;;;;;5128120;27;20058;-83
2022/09/10 12:50:28;;;;;;;5.32;1.50;;;19.20;99.90;;;;;;5124955;27;20494;-81
2022/09/10 12:53:08;;;;;;;2.50;1.45;;;19.20;99.90;;;;;;5117081;27;20046;-79
2022/09/10 12:55:55;;;;;;;2.00;1.00;;;19.20;99.90;;;;;;5123739;27;20023;-85
2022/09/10 12:58:42;;;;;;;1.27;0.80;;;19.20;99.90;;;;;;5120209;27;20390;-77
2022/09/10 13:01:38;;;;;;;1.75;0.40;;;19.10;99.90;;;;;;5119428;27;20105;-80
2022/09/10 13:04:04;;;;;;;0.70;0.22;;;19.00;99.90;;;;;;5111807;27;20041;-77
2022/09/10 13:06:37;;;;;;;0.95;0.20;;;18.80;99.90;;;;;;5125182;27;20400;-76
2022/09/10 13:09:15;;;;;;;1.02;0.30;;;18.80;99.90;;;;;;5132113;27;20114;-77